PWSweather.com
Personal Weather Stations
Station Observations
KCTHAMDEN
Dunbar Hill, Hamden, CT 06514

Dunbar HillHamden, CT 06514

Lat: 41.365437, Lon: -72.956532

Elevation: 200

Station Type: Davis Vantage Pro2+

www.hamdenweather.com

High Low Average
Temperature 66.2°F19.0°C 45.4°F7.4°C 53.3°F11.8°C
Dew Point 54.6°F12.6°C 43.8°F6.6°C 48.9°F9.4°C
Winds 7.0 mph 11.3 kmh Calm Calm 2.0 mph SE3.2 kmh SE
Wind Gusts 9.0 mph14.5 kmh -- 3.0 mph4.8 kmh
Humidity 97% 62% 86%
Pressure 30.24 in1024.0 mb 30.04 in1017.3 mb -
Precipitation 0.16 in4.1 mm - -
Hour Temp Dew Point Humidity Winds Wind Gusts Pressure Precip Precip Rate Daily Precip Total
12:00 AM 45.1°F7.3°C 43.5°F6.4°C 94% 0.7 mph SSE1.1 kmh SSE 1.0 mph1.6 kmh 30.25 in1024.4 mb - 0.00 in0.0 mm 0.00 in0.0 mm
12:15 AM 45.2°F7.3°C 43.6°F6.4°C 94% 1.0 mph S1.6 kmh S 2.0 mph3.2 kmh 30.25 in1024.4 mb - 0.00 in0.0 mm 0.00 in0.0 mm
12:30 AM 45.2°F7.3°C 43.6°F6.4°C 94% 1.1 mph S1.8 kmh S 2.0 mph3.2 kmh 30.24 in1024.0 mb - 0.01 in0.3 mm 0.01 in0.3 mm
12:45 AM 45.3°F7.4°C 43.7°F6.5°C 94% 0.8 mph S1.3 kmh S 1.0 mph1.6 kmh 30.25 in1024.4 mb - 0.01 in0.3 mm 0.02 in0.5 mm
01:00 AM 45.4°F7.4°C 43.8°F6.6°C 94% Calm Calm -- 30.24 in1024.0 mb - 0.01 in0.3 mm 0.03 in0.8 mm
01:15 AM 45.4°F7.4°C 44.1°F6.7°C 95% 0.3 mph S0.5 kmh S 1.0 mph1.6 kmh 30.23 in1023.7 mb - 0.01 in0.3 mm 0.04 in1.0 mm
01:30 AM 45.5°F7.5°C 44.2°F6.8°C 95% Calm Calm -- 30.22 in1023.4 mb - 0.02 in0.5 mm 0.06 in1.5 mm
01:45 AM 45.5°F7.5°C 44.2°F6.8°C 95% Calm Calm -- 30.22 in1023.4 mb - 0.01 in0.3 mm 0.06 in1.5 mm
02:00 AM 45.5°F7.5°C 44.2°F6.8°C 95% Calm Calm -- 30.21 in1023.0 mb - 0.00 in0.0 mm 0.06 in1.5 mm
02:15 AM 45.6°F7.6°C 44.2°F6.8°C 95% Calm Calm -- 30.20 in1022.7 mb - 0.00 in0.0 mm 0.06 in1.5 mm
02:30 AM 45.6°F7.6°C 44.3°F6.8°C 95% Calm Calm -- 30.19 in1022.4 mb - 0.01 in0.3 mm 0.07 in1.8 mm
02:45 AM 45.7°F7.6°C 44.4°F6.9°C 95% Calm Calm -- 30.18 in1022.0 mb - 0.01 in0.3 mm 0.08 in2.0 mm
03:00 AM 45.7°F7.6°C 44.4°F6.9°C 95% Calm Calm -- 30.17 in1021.7 mb - 0.01 in0.3 mm 0.09 in2.3 mm
03:15 AM 45.8°F7.7°C 44.5°F6.9°C 95% Calm Calm -- 30.17 in1021.7 mb - 0.00 in0.0 mm 0.09 in2.3 mm
03:30 AM 45.9°F7.7°C 44.5°F6.9°C 95% 0.1 mph S0.2 kmh S -- 30.17 in1021.7 mb - 0.00 in0.0 mm 0.09 in2.3 mm
03:45 AM 46.0°F7.8°C 44.7°F7.1°C 95% 0.4 mph S0.6 kmh S -- 30.17 in1021.7 mb - 0.00 in0.0 mm 0.09 in2.3 mm
04:00 AM 46.1°F7.8°C 44.7°F7.1°C 95% Calm Calm -- 30.16 in1021.3 mb - 0.00 in0.0 mm 0.09 in2.3 mm
04:15 AM 46.2°F7.9°C 44.8°F7.1°C 95% Calm Calm -- 30.15 in1021.0 mb - 0.00 in0.0 mm 0.09 in2.3 mm
04:30 AM 46.3°F7.9°C 44.9°F7.2°C 95% Calm Calm -- 30.14 in1020.7 mb - 0.00 in0.0 mm 0.09 in2.3 mm
04:45 AM 46.4°F8.0°C 45.0°F7.2°C 95% Calm Calm -- 30.14 in1020.7 mb - 0.01 in0.3 mm 0.10 in2.5 mm
05:00 AM 46.4°F8.0°C 45.0°F7.2°C 95% Calm Calm 1.0 mph1.6 kmh 30.14 in1020.7 mb - 0.00 in0.0 mm 0.10 in2.5 mm
05:30 AM 46.5°F8.1°C 45.4°F7.4°C 96% Calm Calm -- 30.13 in1020.3 mb - 0.00 in0.0 mm 0.10 in2.5 mm
05:45 AM 46.5°F8.1°C 45.4°F7.4°C 96% Calm Calm -- 30.12 in1020.0 mb - 0.00 in0.0 mm 0.10 in2.5 mm
06:00 AM 46.6°F8.1°C 45.5°F7.5°C 96% Calm Calm -- 30.13 in1020.3 mb - 0.00 in0.0 mm 0.10 in2.5 mm
06:15 AM 46.7°F8.2°C 45.6°F7.6°C 96% Calm Calm -- 30.13 in1020.3 mb - 0.00 in0.0 mm 0.10 in2.5 mm
06:30 AM 46.8°F8.2°C 45.7°F7.6°C 96% Calm Calm -- 30.13 in1020.3 mb - 0.00 in0.0 mm 0.10 in2.5 mm
06:45 AM 46.8°F8.2°C 45.8°F7.7°C 96% Calm Calm -- 30.14 in1020.7 mb - 0.00 in0.0 mm 0.10 in2.5 mm
07:00 AM 47.0°F8.3°C 45.9°F7.7°C 96% 0.4 mph S0.6 kmh S 1.0 mph1.6 kmh 30.14 in1020.7 mb - 0.01 in0.3 mm 0.11 in2.8 mm
07:15 AM 47.0°F8.3°C 46.0°F7.8°C 96% 0.6 mph WNW1.0 kmh WNW 1.0 mph1.6 kmh 30.14 in1020.7 mb - 0.01 in0.3 mm 0.12 in3.0 mm
07:30 AM 47.2°F8.4°C 46.1°F7.8°C 96% 0.6 mph WNW1.0 kmh WNW 2.0 mph3.2 kmh 30.15 in1021.0 mb - 0.01 in0.3 mm 0.13 in3.3 mm
07:45 AM 47.4°F8.6°C 46.3°F7.9°C 96% Calm Calm 1.0 mph1.6 kmh 30.14 in1020.7 mb - 0.01 in0.3 mm 0.14 in3.6 mm
08:00 AM 47.7°F8.7°C 46.6°F8.1°C 96% 0.1 mph WNW0.2 kmh WNW 1.0 mph1.6 kmh 30.14 in1020.7 mb - 0.00 in0.0 mm 0.14 in3.6 mm
08:15 AM 47.8°F8.8°C 46.7°F8.2°C 96% Calm Calm -- 30.15 in1021.0 mb - 0.00 in0.0 mm 0.14 in3.6 mm
08:30 AM 48.0°F8.9°C 46.9°F8.3°C 96% 0.7 mph WNW1.1 kmh WNW 1.0 mph1.6 kmh 30.15 in1021.0 mb - 0.00 in0.0 mm 0.14 in3.6 mm
08:45 AM 48.1°F8.9°C 47.3°F8.5°C 97% Calm Calm -- 30.15 in1021.0 mb - 0.01 in0.3 mm 0.15 in3.8 mm
09:00 AM 48.3°F9.1°C 47.5°F8.6°C 97% 0.7 mph WNW1.1 kmh WNW 1.0 mph1.6 kmh 30.14 in1020.7 mb - 0.00 in0.0 mm 0.15 in3.8 mm
09:15 AM 48.5°F9.2°C 47.4°F8.6°C 96% 1.5 mph WNW2.4 kmh WNW 3.0 mph4.8 kmh 30.15 in1021.0 mb - 0.00 in0.0 mm 0.15 in3.8 mm
09:30 AM 48.8°F9.3°C 48.0°F8.9°C 97% 1.1 mph NE1.8 kmh NE 2.0 mph3.2 kmh 30.15 in1021.0 mb - 0.01 in0.3 mm 0.16 in4.1 mm
09:45 AM 49.0°F9.4°C 48.2°F9.0°C 97% 1.1 mph ENE1.8 kmh ENE 1.0 mph1.6 kmh 30.15 in1021.0 mb - 0.00 in0.0 mm 0.16 in4.1 mm
10:00 AM 49.4°F9.7°C 48.6°F9.2°C 97% 0.2 mph NE0.3 kmh NE 1.0 mph1.6 kmh 30.14 in1020.7 mb - 0.00 in0.0 mm 0.16 in4.1 mm
10:15 AM 50.6°F10.3°C 49.8°F9.9°C 97% 2.2 mph NE3.5 kmh NE 4.0 mph6.4 kmh 30.14 in1020.7 mb - 0.00 in0.0 mm 0.16 in4.1 mm
10:30 AM 50.5°F10.3°C 49.4°F9.7°C 96% 0.5 mph NE0.8 kmh NE 1.0 mph1.6 kmh 30.14 in1020.7 mb - 0.00 in0.0 mm 0.16 in4.1 mm
10:45 AM 51.3°F10.7°C 50.5°F10.3°C 97% 2.4 mph NE3.9 kmh NE 3.0 mph4.8 kmh 30.13 in1020.3 mb - 0.00 in0.0 mm 0.16 in4.1 mm
11:00 AM 52.9°F11.6°C 51.8°F11.0°C 96% 3.0 mph NNE4.8 kmh NNE 5.0 mph8.0 kmh 30.13 in1020.3 mb - 0.00 in0.0 mm 0.16 in4.1 mm
11:15 AM 54.2°F12.3°C 52.5°F11.4°C 94% 2.8 mph NE4.5 kmh NE 5.0 mph8.0 kmh 30.13 in1020.3 mb - 0.00 in0.0 mm 0.16 in4.1 mm
11:30 AM 55.4°F13.0°C 52.8°F11.6°C 91% 2.3 mph ENE3.7 kmh ENE 3.0 mph4.8 kmh 30.11 in1019.6 mb - 0.00 in0.0 mm 0.16 in4.1 mm
11:45 AM 55.9°F13.3°C 52.1°F11.2°C 87% 0.4 mph ENE0.6 kmh ENE 1.0 mph1.6 kmh 30.12 in1020.0 mb - 0.00 in0.0 mm 0.16 in4.1 mm
12:00 PM 56.6°F13.7°C 52.4°F11.3°C 86% 2.6 mph NE4.2 kmh NE 3.0 mph4.8 kmh 30.11 in1019.6 mb - 0.00 in0.0 mm 0.16 in4.1 mm
12:15 PM 57.2°F14.0°C 52.4°F11.3°C 84% 3.5 mph WNW5.6 kmh WNW 4.0 mph6.4 kmh 30.11 in1019.6 mb - 0.00 in0.0 mm 0.16 in4.1 mm
12:30 PM 58.0°F14.4°C 52.5°F11.4°C 82% 1.8 mph NE2.9 kmh NE 5.0 mph8.0 kmh 30.10 in1019.3 mb - 0.00 in0.0 mm 0.16 in4.1 mm
12:45 PM 59.3°F15.2°C 53.8°F12.1°C 82% 5.1 mph ENE8.2 kmh ENE 9.0 mph14.5 kmh 30.09 in1019.0 mb - 0.00 in0.0 mm 0.16 in4.1 mm
01:00 PM 60.0°F15.6°C 52.4°F11.3°C 76% 4.4 mph NE7.1 kmh NE 6.0 mph9.7 kmh 30.09 in1019.0 mb - 0.00 in0.0 mm 0.16 in4.1 mm
01:15 PM 60.5°F15.8°C 52.9°F11.6°C 76% 4.5 mph E7.2 kmh E 7.0 mph11.3 kmh 30.09 in1019.0 mb - 0.00 in0.0 mm 0.16 in4.1 mm
01:30 PM 61.1°F16.2°C 52.7°F11.5°C 74% 2.2 mph NE3.5 kmh NE 5.0 mph8.0 kmh 30.09 in1019.0 mb - 0.00 in0.0 mm 0.16 in4.1 mm
01:45 PM 61.4°F16.3°C 53.0°F11.7°C 74% 3.4 mph E5.5 kmh E 8.0 mph12.9 kmh 30.08 in1018.6 mb - 0.00 in0.0 mm 0.16 in4.1 mm
02:00 PM 62.6°F17.0°C 54.6°F12.6°C 75% 0.7 mph ESE1.1 kmh ESE 2.0 mph3.2 kmh 30.07 in1018.3 mb - 0.00 in0.0 mm 0.16 in4.1 mm
02:15 PM 63.2°F17.3°C 52.9°F11.6°C 69% 1.0 mph NNE1.6 kmh NNE 2.0 mph3.2 kmh 30.07 in1018.3 mb - 0.00 in0.0 mm 0.16 in4.1 mm
02:30 PM 63.2°F17.3°C 52.9°F11.6°C 69% 7.0 mph NE11.3 kmh NE 9.0 mph14.5 kmh 30.07 in1018.3 mb - 0.00 in0.0 mm 0.16 in4.1 mm
02:45 PM 63.6°F17.6°C 54.4°F12.4°C 72% 3.4 mph E5.5 kmh E 9.0 mph14.5 kmh 30.06 in1017.9 mb - 0.00 in0.0 mm 0.16 in4.1 mm
03:00 PM 64.4°F18.0°C 54.0°F12.2°C 69% 3.7 mph ESE6.0 kmh ESE 8.0 mph12.9 kmh 30.06 in1017.9 mb - 0.00 in0.0 mm 0.16 in4.1 mm
03:15 PM 63.8°F17.7°C 53.0°F11.7°C 68% 3.3 mph NNE5.3 kmh NNE 6.0 mph9.7 kmh 30.06 in1017.9 mb - 0.00 in0.0 mm 0.16 in4.1 mm
03:30 PM 64.1°F17.8°C 53.3°F11.8°C 68% 4.0 mph ESE6.4 kmh ESE 7.0 mph11.3 kmh 30.05 in1017.6 mb - 0.00 in0.0 mm 0.16 in4.1 mm
03:45 PM 64.2°F17.9°C 53.0°F11.7°C 67% 2.8 mph NE4.5 kmh NE 4.0 mph6.4 kmh 30.06 in1017.9 mb - 0.00 in0.0 mm 0.16 in4.1 mm
04:00 PM 64.3°F17.9°C 52.7°F11.5°C 66% 1.0 mph E1.6 kmh E 2.0 mph3.2 kmh 30.05 in1017.6 mb - 0.00 in0.0 mm 0.16 in4.1 mm
04:15 PM 64.9°F18.3°C 52.9°F11.6°C 65% 3.2 mph NW5.1 kmh NW 5.0 mph8.0 kmh 30.04 in1017.3 mb - 0.00 in0.0 mm 0.16 in4.1 mm
04:30 PM 66.0°F18.9°C 53.1°F11.7°C 63% 3.6 mph NW5.8 kmh NW 7.0 mph11.3 kmh 30.05 in1017.6 mb - 0.00 in0.0 mm 0.16 in4.1 mm
04:45 PM 66.2°F19.0°C 52.8°F11.6°C 62% 3.3 mph ESE5.3 kmh ESE 8.0 mph12.9 kmh 30.05 in1017.6 mb - 0.00 in0.0 mm 0.16 in4.1 mm
05:00 PM 65.8°F18.8°C 53.7°F12.1°C 65% Calm Calm 2.0 mph3.2 kmh 30.05 in1017.6 mb - 0.00 in0.0 mm 0.16 in4.1 mm
05:15 PM 65.0°F18.3°C 53.3°F11.8°C 66% 1.6 mph SSE2.6 kmh SSE 3.0 mph4.8 kmh 30.04 in1017.3 mb - 0.00 in0.0 mm 0.16 in4.1 mm
05:30 PM 63.8°F17.7°C 52.7°F11.5°C 67% 3.8 mph SE6.1 kmh SE 4.0 mph6.4 kmh 30.04 in1017.3 mb - 0.00 in0.0 mm 0.16 in4.1 mm
05:45 PM 62.2°F16.8°C 51.9°F11.1°C 69% 2.9 mph SSE4.7 kmh SSE 3.0 mph4.8 kmh 30.04 in1017.3 mb - 0.00 in0.0 mm 0.16 in4.1 mm
06:00 PM 60.3°F15.7°C 51.6°F10.9°C 73% 3.4 mph S5.5 kmh S 5.0 mph8.0 kmh 30.04 in1017.3 mb - 0.00 in0.0 mm 0.16 in4.1 mm
06:15 PM 58.9°F14.9°C 51.0°F10.6°C 75% 2.2 mph S3.5 kmh S 4.0 mph6.4 kmh 30.05 in1017.6 mb - 0.00 in0.0 mm 0.16 in4.1 mm
06:30 PM 58.2°F14.6°C 51.0°F10.6°C 77% 3.0 mph S4.8 kmh S 4.0 mph6.4 kmh 30.05 in1017.6 mb - 0.00 in0.0 mm 0.16 in4.1 mm
06:45 PM 57.7°F14.3°C 50.5°F10.3°C 77% 1.6 mph SE2.6 kmh SE 3.0 mph4.8 kmh 30.06 in1017.9 mb - 0.00 in0.0 mm 0.16 in4.1 mm
07:00 PM 57.2°F14.0°C 50.7°F10.4°C 79% 1.4 mph S2.3 kmh S 2.0 mph3.2 kmh 30.06 in1017.9 mb - 0.00 in0.0 mm 0.16 in4.1 mm
07:15 PM 56.9°F13.8°C 51.1°F10.6°C 81% 0.1 mph SSE0.2 kmh SSE 2.0 mph3.2 kmh 30.06 in1017.9 mb - 0.00 in0.0 mm 0.16 in4.1 mm
07:30 PM 56.3°F13.5°C 50.9°F10.5°C 82% 0.8 mph SE1.3 kmh SE 5.0 mph8.0 kmh 30.06 in1017.9 mb - 0.00 in0.0 mm 0.16 in4.1 mm
07:45 PM 55.9°F13.3°C 50.8°F10.4°C 83% 1.3 mph SE2.1 kmh SE 2.0 mph3.2 kmh 30.08 in1018.6 mb - 0.00 in0.0 mm 0.16 in4.1 mm
08:00 PM 55.6°F13.1°C 50.2°F10.1°C 82% 0.9 mph SE1.4 kmh SE 2.0 mph3.2 kmh 30.07 in1018.3 mb - 0.00 in0.0 mm 0.16 in4.1 mm
08:15 PM 55.4°F13.0°C 50.0°F10.0°C 82% 2.2 mph SE3.5 kmh SE 3.0 mph4.8 kmh 30.07 in1018.3 mb - 0.00 in0.0 mm 0.16 in4.1 mm
08:30 PM 54.9°F12.7°C 49.8°F9.9°C 83% 2.1 mph E3.4 kmh E 5.0 mph8.0 kmh 30.08 in1018.6 mb - 0.00 in0.0 mm 0.16 in4.1 mm
08:45 PM 54.5°F12.5°C 49.4°F9.7°C 83% 4.0 mph ESE6.4 kmh ESE 7.0 mph11.3 kmh 30.07 in1018.3 mb - 0.00 in0.0 mm 0.16 in4.1 mm
09:00 PM 54.1°F12.3°C 49.4°F9.7°C 84% 4.5 mph E7.2 kmh E 8.0 mph12.9 kmh 30.08 in1018.6 mb - 0.00 in0.0 mm 0.16 in4.1 mm
09:15 PM 53.7°F12.1°C 49.0°F9.4°C 84% 3.2 mph ESE5.1 kmh ESE 4.0 mph6.4 kmh 30.07 in1018.3 mb - 0.00 in0.0 mm 0.16 in4.1 mm
09:30 PM 53.3°F11.8°C 48.9°F9.4°C 85% 1.6 mph SE2.6 kmh SE 2.0 mph3.2 kmh 30.08 in1018.6 mb - 0.00 in0.0 mm 0.16 in4.1 mm
09:45 PM 53.0°F11.7°C 48.9°F9.4°C 86% 2.5 mph S4.0 kmh S 3.0 mph4.8 kmh 30.09 in1019.0 mb - 0.00 in0.0 mm 0.16 in4.1 mm
10:00 PM 52.8°F11.6°C 49.0°F9.4°C 87% 2.2 mph SE3.5 kmh SE 3.0 mph4.8 kmh 30.10 in1019.3 mb - 0.00 in0.0 mm 0.16 in4.1 mm
10:15 PM 52.8°F11.6°C 49.0°F9.4°C 87% 1.7 mph SE2.7 kmh SE 3.0 mph4.8 kmh 30.09 in1019.0 mb - 0.00 in0.0 mm 0.16 in4.1 mm
10:30 PM 52.7°F11.5°C 48.6°F9.2°C 86% 5.3 mph SE8.5 kmh SE 7.0 mph11.3 kmh 30.09 in1019.0 mb - 0.00 in0.0 mm 0.16 in4.1 mm
10:45 PM 52.2°F11.2°C 48.1°F8.9°C 86% 2.0 mph ESE3.2 kmh ESE 7.0 mph11.3 kmh 30.08 in1018.6 mb - 0.00 in0.0 mm 0.16 in4.1 mm
11:00 PM 51.6°F10.9°C 47.5°F8.6°C 86% 2.7 mph SSE4.3 kmh SSE 5.0 mph8.0 kmh 30.09 in1019.0 mb - 0.00 in0.0 mm 0.16 in4.1 mm
11:15 PM 51.2°F10.7°C 47.5°F8.6°C 87% 0.2 mph SE0.3 kmh SE 1.0 mph1.6 kmh 30.10 in1019.3 mb - 0.00 in0.0 mm 0.16 in4.1 mm
11:30 PM 50.8°F10.4°C 47.1°F8.4°C 87% 0.9 mph E1.4 kmh E 3.0 mph4.8 kmh 30.10 in1019.3 mb - 0.00 in0.0 mm 0.16 in4.1 mm
11:45 PM 50.5°F10.3°C 47.1°F8.4°C 88% 2.6 mph SE4.2 kmh SE 4.0 mph6.4 kmh 30.09 in1019.0 mb - 0.00 in0.0 mm 0.16 in4.1 mm